sensor_id;sensor_type;location;lat;lon;timestamp;P1;durP1;ratioP1;P2;durP2;ratioP2
37545;SDS011;23389;52.484;13.572;2023-04-30T00:02:09;6.10;;;2.42;;
37545;SDS011;23389;52.484;13.572;2023-04-30T00:04:34;6.15;;;2.35;;
37545;SDS011;23389;52.484;13.572;2023-04-30T00:06:59;6.15;;;2.30;;
37545;SDS011;23389;52.484;13.572;2023-04-30T00:09:25;7.07;;;2.30;;
37545;SDS011;23389;52.484;13.572;2023-04-30T00:11:50;9.45;;;2.22;;
37545;SDS011;23389;52.484;13.572;2023-04-30T00:14:15;6.45;;;2.22;;
37545;SDS011;23389;52.484;13.572;2023-04-30T00:16:40;6.65;;;2.15;;
37545;SDS011;23389;52.484;13.572;2023-04-30T00:19:06;5.80;;;2.28;;
37545;SDS011;23389;52.484;13.572;2023-04-30T00:21:32;6.65;;;1.80;;
37545;SDS011;23389;52.484;13.572;2023-04-30T00:23:57;8.20;;;2.07;;
37545;SDS011;23389;52.484;13.572;2023-04-30T00:26:24;6.95;;;1.95;;
37545;SDS011;23389;52.484;13.572;2023-04-30T00:28:49;7.93;;;2.10;;
37545;SDS011;23389;52.484;13.572;2023-04-30T00:31:14;6.80;;;1.98;;
37545;SDS011;23389;52.484;13.572;2023-04-30T00:33:39;7.50;;;2.10;;
37545;SDS011;23389;52.484;13.572;2023-04-30T00:36:05;6.65;;;2.03;;
37545;SDS011;23389;52.484;13.572;2023-04-30T00:38:30;6.75;;;1.92;;
37545;SDS011;23389;52.484;13.572;2023-04-30T00:40:55;8.80;;;2.20;;
37545;SDS011;23389;52.484;13.572;2023-04-30T00:43:20;6.37;;;1.97;;
37545;SDS011;23389;52.484;13.572;2023-04-30T00:45:45;7.88;;;2.17;;
37545;SDS011;23389;52.484;13.572;2023-04-30T00:48:10;5.65;;;1.80;;
37545;SDS011;23389;52.484;13.572;2023-04-30T00:50:35;4.68;;;1.73;;
37545;SDS011;23389;52.484;13.572;2023-04-30T00:53:01;6.72;;;2.10;;
37545;SDS011;23389;52.484;13.572;2023-04-30T00:55:26;6.63;;;1.85;;
37545;SDS011;23389;52.484;13.572;2023-04-30T00:57:51;7.38;;;1.90;;
37545;SDS011;23389;52.484;13.572;2023-04-30T01:00:17;5.55;;;1.65;;
37545;SDS011;23389;52.484;13.572;2023-04-30T01:02:42;5.75;;;2.30;;
37545;SDS011;23389;52.484;13.572;2023-04-30T01:05:07;5.85;;;1.70;;
37545;SDS011;23389;52.484;13.572;2023-04-30T01:07:35;6.00;;;2.20;;
37545;SDS011;23389;52.484;13.572;2023-04-30T01:10:02;6.53;;;2.22;;
37545;SDS011;23389;52.484;13.572;2023-04-30T01:13:03;7.30;;;2.00;;
37545;SDS011;23389;52.484;13.572;2023-04-30T01:18:01;7.38;;;2.50;;
37545;SDS011;23389;52.484;13.572;2023-04-30T01:20:28;10.05;;;2.55;;
37545;SDS011;23389;52.484;13.572;2023-04-30T01:25:32;8.32;;;2.25;;
37545;SDS011;23389;52.484;13.572;2023-04-30T01:28:14;6.43;;;2.50;;
37545;SDS011;23389;52.484;13.572;2023-04-30T01:30:47;7.40;;;1.85;;
37545;SDS011;23389;52.484;13.572;2023-04-30T01:33:13;9.70;;;2.60;;
37545;SDS011;23389;52.484;13.572;2023-04-30T01:40:42;7.22;;;2.50;;
37545;SDS011;23389;52.484;13.572;2023-04-30T01:45:38;9.70;;;3.20;;
37545;SDS011;23389;52.484;13.572;2023-04-30T01:48:16;9.25;;;2.88;;
37545;SDS011;23389;52.484;13.572;2023-04-30T01:50:45;12.40;;;3.05;;
37545;SDS011;23389;52.484;13.572;2023-04-30T01:53:12;6.22;;;2.42;;
37545;SDS011;23389;52.484;13.572;2023-04-30T01:55:41;10.82;;;3.25;;
37545;SDS011;23389;52.484;13.572;2023-04-30T01:58:11;8.73;;;2.63;;
37545;SDS011;23389;52.484;13.572;2023-04-30T02:00:37;9.60;;;2.90;;
37545;SDS011;23389;52.484;13.572;2023-04-30T02:03:02;11.07;;;2.90;;
37545;SDS011;23389;52.484;13.572;2023-04-30T02:05:27;10.48;;;2.78;;
37545;SDS011;23389;52.484;13.572;2023-04-30T02:07:52;5.70;;;2.50;;
37545;SDS011;23389;52.484;13.572;2023-04-30T02:10:18;6.95;;;2.67;;
37545;SDS011;23389;52.484;13.572;2023-04-30T02:12:43;7.72;;;2.28;;
37545;SDS011;23389;52.484;13.572;2023-04-30T02:15:08;10.57;;;2.88;;
37545;SDS011;23389;52.484;13.572;2023-04-30T02:17:34;7.88;;;2.40;;
37545;SDS011;23389;52.484;13.572;2023-04-30T02:19:59;7.83;;;3.43;;
37545;SDS011;23389;52.484;13.572;2023-04-30T02:22:24;10.60;;;2.63;;
37545;SDS011;23389;52.484;13.572;2023-04-30T02:24:49;8.60;;;2.83;;
37545;SDS011;23389;52.484;13.572;2023-04-30T02:27:15;7.05;;;2.70;;
37545;SDS011;23389;52.484;13.572;2023-04-30T02:29:40;7.63;;;2.47;;
37545;SDS011;23389;52.484;13.572;2023-04-30T02:32:05;9.68;;;2.95;;
37545;SDS011;23389;52.484;13.572;2023-04-30T02:34:30;10.25;;;2.80;;
37545;SDS011;23389;52.484;13.572;2023-04-30T02:36:55;11.52;;;2.90;;
37545;SDS011;23389;52.484;13.572;2023-04-30T02:39:20;8.70;;;3.05;;
37545;SDS011;23389;52.484;13.572;2023-04-30T02:41:45;7.60;;;2.47;;
37545;SDS011;23389;52.484;13.572;2023-04-30T02:44:11;10.23;;;3.13;;
37545;SDS011;23389;52.484;13.572;2023-04-30T02:46:36;7.67;;;2.37;;
37545;SDS011;23389;52.484;13.572;2023-04-30T02:49:01;10.87;;;2.90;;
37545;SDS011;23389;52.484;13.572;2023-04-30T02:51:26;7.03;;;2.95;;
37545;SDS011;23389;52.484;13.572;2023-04-30T02:53:52;9.43;;;2.78;;
37545;SDS011;23389;52.484;13.572;2023-04-30T02:56:17;8.75;;;2.38;;
37545;SDS011;23389;52.484;13.572;2023-04-30T02:58:42;7.85;;;2.72;;
37545;SDS011;23389;52.484;13.572;2023-04-30T03:01:07;9.13;;;2.97;;
37545;SDS011;23389;52.484;13.572;2023-04-30T03:03:32;7.50;;;2.80;;
37545;SDS011;23389;52.484;13.572;2023-04-30T03:05:57;7.38;;;2.75;;
37545;SDS011;23389;52.484;13.572;2023-04-30T03:08:23;7.38;;;3.63;;
37545;SDS011;23389;52.484;13.572;2023-04-30T03:10:48;7.55;;;3.10;;
37545;SDS011;23389;52.484;13.572;2023-04-30T03:13:13;9.95;;;3.30;;
37545;SDS011;23389;52.484;13.572;2023-04-30T03:15:38;14.03;;;3.10;;
37545;SDS011;23389;52.484;13.572;2023-04-30T03:18:04;9.40;;;3.00;;
37545;SDS011;23389;52.484;13.572;2023-04-30T03:20:29;12.38;;;3.03;;
37545;SDS011;23389;52.484;13.572;2023-04-30T03:22:54;10.13;;;3.13;;
37545;SDS011;23389;52.484;13.572;2023-04-30T03:25:19;9.27;;;2.97;;
37545;SDS011;23389;52.484;13.572;2023-04-30T03:27:44;10.75;;;2.80;;
37545;SDS011;23389;52.484;13.572;2023-04-30T03:30:10;11.37;;;2.93;;
37545;SDS011;23389;52.484;13.572;2023-04-30T03:32:35;8.68;;;3.25;;
37545;SDS011;23389;52.484;13.572;2023-04-30T03:35:00;11.20;;;2.60;;
37545;SDS011;23389;52.484;13.572;2023-04-30T03:37:25;13.63;;;2.93;;
37545;SDS011;23389;52.484;13.572;2023-04-30T03:39:50;11.20;;;3.07;;
37545;SDS011;23389;52.484;13.572;2023-04-30T03:42:15;9.52;;;2.70;;
37545;SDS011;23389;52.484;13.572;2023-04-30T03:44:40;9.45;;;2.97;;
37545;SDS011;23389;52.484;13.572;2023-04-30T03:47:05;11.55;;;3.60;;
37545;SDS011;23389;52.484;13.572;2023-04-30T03:49:31;11.90;;;3.78;;
37545;SDS011;23389;52.484;13.572;2023-04-30T03:51:56;13.65;;;4.00;;
37545;SDS011;23389;52.484;13.572;2023-04-30T03:54:21;12.75;;;4.00;;
37545;SDS011;23389;52.484;13.572;2023-04-30T03:56:46;9.85;;;3.00;;
37545;SDS011;23389;52.484;13.572;2023-04-30T03:59:11;8.13;;;3.15;;
37545;SDS011;23389;52.484;13.572;2023-04-30T04:01:36;8.02;;;3.28;;
37545;SDS011;23389;52.484;13.572;2023-04-30T04:04:01;9.97;;;3.47;;
37545;SDS011;23389;52.484;13.572;2023-04-30T04:06:26;9.80;;;3.33;;
37545;SDS011;23389;52.484;13.572;2023-04-30T04:08:52;11.45;;;3.75;;
37545;SDS011;23389;52.484;13.572;2023-04-30T04:11:17;13.07;;;3.80;;
37545;SDS011;23389;52.484;13.572;2023-04-30T04:13:42;9.13;;;3.13;;
37545;SDS011;23389;52.484;13.572;2023-04-30T04:16:07;13.05;;;4.15;;
37545;SDS011;23389;52.484;13.572;2023-04-30T04:18:33;9.15;;;3.33;;
37545;SDS011;23389;52.484;13.572;2023-04-30T04:20:58;9.88;;;3.38;;
37545;SDS011;23389;52.484;13.572;2023-04-30T04:23:25;9.63;;;3.08;;
37545;SDS011;23389;52.484;13.572;2023-04-30T04:25:50;9.82;;;3.63;;
37545;SDS011;23389;52.484;13.572;2023-04-30T04:28:16;9.90;;;3.25;;
37545;SDS011;23389;52.484;13.572;2023-04-30T04:30:41;9.32;;;3.63;;
37545;SDS011;23389;52.484;13.572;2023-04-30T04:33:06;15.13;;;3.43;;
37545;SDS011;23389;52.484;13.572;2023-04-30T04:35:32;8.00;;;2.97;;
37545;SDS011;23389;52.484;13.572;2023-04-30T04:37:57;10.68;;;3.25;;
37545;SDS011;23389;52.484;13.572;2023-04-30T04:40:23;11.73;;;4.10;;
37545;SDS011;23389;52.484;13.572;2023-04-30T04:42:51;13.25;;;3.65;;
37545;SDS011;23389;52.484;13.572;2023-04-30T04:45:16;13.75;;;3.90;;
37545;SDS011;23389;52.484;13.572;2023-04-30T04:47:41;10.38;;;3.50;;
37545;SDS011;23389;52.484;13.572;2023-04-30T04:50:06;13.20;;;3.90;;
37545;SDS011;23389;52.484;13.572;2023-04-30T04:52:32;10.60;;;3.55;;
37545;SDS011;23389;52.484;13.572;2023-04-30T04:54:57;12.37;;;3.23;;
37545;SDS011;23389;52.484;13.572;2023-04-30T04:57:22;12.93;;;3.92;;
37545;SDS011;23389;52.484;13.572;2023-04-30T04:59:47;8.77;;;3.45;;
37545;SDS011;23389;52.484;13.572;2023-04-30T05:02:12;11.27;;;3.50;;
37545;SDS011;23389;52.484;13.572;2023-04-30T05:04:37;11.40;;;3.47;;
37545;SDS011;23389;52.484;13.572;2023-04-30T05:07:02;10.68;;;3.05;;
37545;SDS011;23389;52.484;13.572;2023-04-30T05:09:27;10.23;;;4.10;;
37545;SDS011;23389;52.484;13.572;2023-04-30T05:11:53;12.90;;;3.30;;
37545;SDS011;23389;52.484;13.572;2023-04-30T05:14:18;12.48;;;3.58;;
37545;SDS011;23389;52.484;13.572;2023-04-30T05:16:44;11.10;;;3.55;;
37545;SDS011;23389;52.484;13.572;2023-04-30T05:19:10;11.68;;;3.70;;
37545;SDS011;23389;52.484;13.572;2023-04-30T05:21:35;9.93;;;3.45;;
37545;SDS011;23389;52.484;13.572;2023-04-30T05:24:01;9.57;;;3.38;;
37545;SDS011;23389;52.484;13.572;2023-04-30T05:26:26;10.60;;;3.50;;
37545;SDS011;23389;52.484;13.572;2023-04-30T05:28:51;10.93;;;3.90;;
37545;SDS011;23389;52.484;13.572;2023-04-30T05:31:16;10.77;;;3.60;;
37545;SDS011;23389;52.484;13.572;2023-04-30T05:33:41;12.03;;;3.90;;
37545;SDS011;23389;52.484;13.572;2023-04-30T05:36:06;9.52;;;3.60;;
37545;SDS011;23389;52.484;13.572;2023-04-30T05:38:32;11.77;;;3.23;;
37545;SDS011;23389;52.484;13.572;2023-04-30T05:40:57;13.43;;;3.47;;
37545;SDS011;23389;52.484;13.572;2023-04-30T05:43:22;13.43;;;3.80;;
37545;SDS011;23389;52.484;13.572;2023-04-30T05:45:47;8.10;;;3.37;;
37545;SDS011;23389;52.484;13.572;2023-04-30T05:48:12;11.73;;;3.55;;
37545;SDS011;23389;52.484;13.572;2023-04-30T05:50:37;12.45;;;3.75;;
37545;SDS011;23389;52.484;13.572;2023-04-30T05:53:02;9.80;;;3.20;;
37545;SDS011;23389;52.484;13.572;2023-04-30T05:55:27;12.10;;;3.63;;
37545;SDS011;23389;52.484;13.572;2023-04-30T05:57:52;8.48;;;3.60;;
37545;SDS011;23389;52.484;13.572;2023-04-30T06:00:18;11.45;;;3.45;;
37545;SDS011;23389;52.484;13.572;2023-04-30T06:02:43;11.18;;;3.50;;
37545;SDS011;23389;52.484;13.572;2023-04-30T06:05:08;9.35;;;3.42;;
37545;SDS011;23389;52.484;13.572;2023-04-30T06:07:33;10.10;;;3.53;;
37545;SDS011;23389;52.484;13.572;2023-04-30T06:09:58;10.07;;;3.47;;
37545;SDS011;23389;52.484;13.572;2023-04-30T06:12:24;10.70;;;3.75;;
37545;SDS011;23389;52.484;13.572;2023-04-30T06:14:49;9.63;;;3.85;;
37545;SDS011;23389;52.484;13.572;2023-04-30T06:17:18;11.00;;;3.65;;
37545;SDS011;23389;52.484;13.572;2023-04-30T06:19:43;10.60;;;3.28;;
37545;SDS011;23389;52.484;13.572;2023-04-30T06:22:08;10.43;;;3.75;;
37545;SDS011;23389;52.484;13.572;2023-04-30T06:24:33;9.85;;;3.67;;
37545;SDS011;23389;52.484;13.572;2023-04-30T06:26:59;9.90;;;3.70;;
37545;SDS011;23389;52.484;13.572;2023-04-30T06:29:24;8.15;;;3.25;;
37545;SDS011;23389;52.484;13.572;2023-04-30T06:31:49;9.87;;;3.57;;
37545;SDS011;23389;52.484;13.572;2023-04-30T06:34:15;10.02;;;3.65;;
37545;SDS011;23389;52.484;13.572;2023-04-30T06:36:40;10.63;;;4.17;;
37545;SDS011;23389;52.484;13.572;2023-04-30T06:39:05;11.30;;;3.40;;
37545;SDS011;23389;52.484;13.572;2023-04-30T06:41:30;13.50;;;4.28;;
37545;SDS011;23389;52.484;13.572;2023-04-30T06:43:56;6.97;;;3.05;;
37545;SDS011;23389;52.484;13.572;2023-04-30T06:46:21;10.18;;;3.50;;
37545;SDS011;23389;52.484;13.572;2023-04-30T06:48:46;11.23;;;3.72;;
37545;SDS011;23389;52.484;13.572;2023-04-30T06:51:11;14.85;;;4.18;;
37545;SDS011;23389;52.484;13.572;2023-04-30T06:53:36;11.85;;;3.47;;
37545;SDS011;23389;52.484;13.572;2023-04-30T06:56:01;11.57;;;3.38;;
37545;SDS011;23389;52.484;13.572;2023-04-30T06:58:28;10.85;;;3.97;;
37545;SDS011;23389;52.484;13.572;2023-04-30T07:00:53;11.30;;;3.63;;
37545;SDS011;23389;52.484;13.572;2023-04-30T07:03:18;13.40;;;4.15;;
37545;SDS011;23389;52.484;13.572;2023-04-30T07:05:43;8.80;;;3.37;;
37545;SDS011;23389;52.484;13.572;2023-04-30T07:08:08;9.38;;;3.60;;
37545;SDS011;23389;52.484;13.572;2023-04-30T07:10:34;11.60;;;4.07;;
37545;SDS011;23389;52.484;13.572;2023-04-30T07:12:59;8.70;;;3.70;;
37545;SDS011;23389;52.484;13.572;2023-04-30T07:15:24;10.13;;;3.47;;
37545;SDS011;23389;52.484;13.572;2023-04-30T07:17:49;12.38;;;3.90;;
37545;SDS011;23389;52.484;13.572;2023-04-30T07:20:14;9.30;;;3.67;;
37545;SDS011;23389;52.484;13.572;2023-04-30T07:22:40;11.23;;;3.40;;
37545;SDS011;23389;52.484;13.572;2023-04-30T07:25:08;8.10;;;3.58;;
37545;SDS011;23389;52.484;13.572;2023-04-30T07:27:33;6.97;;;3.38;;
37545;SDS011;23389;52.484;13.572;2023-04-30T07:29:58;9.13;;;3.60;;
37545;SDS011;23389;52.484;13.572;2023-04-30T07:32:23;10.95;;;3.67;;
37545;SDS011;23389;52.484;13.572;2023-04-30T07:34:50;11.38;;;3.28;;
37545;SDS011;23389;52.484;13.572;2023-04-30T07:37:16;10.60;;;3.60;;
37545;SDS011;23389;52.484;13.572;2023-04-30T07:39:41;8.63;;;3.40;;
37545;SDS011;23389;52.484;13.572;2023-04-30T07:42:06;10.18;;;3.65;;
37545;SDS011;23389;52.484;13.572;2023-04-30T07:44:31;10.88;;;4.25;;
37545;SDS011;23389;52.484;13.572;2023-04-30T07:46:56;11.23;;;3.45;;
37545;SDS011;23389;52.484;13.572;2023-04-30T07:49:21;10.20;;;3.58;;
37545;SDS011;23389;52.484;13.572;2023-04-30T07:51:47;13.40;;;3.60;;
37545;SDS011;23389;52.484;13.572;2023-04-30T07:54:12;11.40;;;3.08;;
37545;SDS011;23389;52.484;13.572;2023-04-30T07:56:37;10.13;;;3.67;;
37545;SDS011;23389;52.484;13.572;2023-04-30T07:59:03;11.27;;;3.92;;
37545;SDS011;23389;52.484;13.572;2023-04-30T08:01:28;10.57;;;3.08;;
37545;SDS011;23389;52.484;13.572;2023-04-30T08:03:53;7.27;;;2.73;;
37545;SDS011;23389;52.484;13.572;2023-04-30T08:06:18;9.43;;;3.08;;
37545;SDS011;23389;52.484;13.572;2023-04-30T08:08:44;8.93;;;2.97;;
37545;SDS011;23389;52.484;13.572;2023-04-30T08:11:09;9.98;;;2.90;;
37545;SDS011;23389;52.484;13.572;2023-04-30T08:13:34;10.35;;;3.28;;
37545;SDS011;23389;52.484;13.572;2023-04-30T08:16:00;8.98;;;3.25;;
37545;SDS011;23389;52.484;13.572;2023-04-30T08:18:25;12.57;;;3.22;;
37545;SDS011;23389;52.484;13.572;2023-04-30T08:20:50;8.57;;;3.17;;
37545;SDS011;23389;52.484;13.572;2023-04-30T08:23:16;11.50;;;3.50;;
37545;SDS011;23389;52.484;13.572;2023-04-30T08:25:41;10.80;;;3.17;;
37545;SDS011;23389;52.484;13.572;2023-04-30T08:28:06;9.43;;;3.70;;
37545;SDS011;23389;52.484;13.572;2023-04-30T08:30:31;8.27;;;3.13;;
37545;SDS011;23389;52.484;13.572;2023-04-30T08:32:56;9.57;;;3.38;;
37545;SDS011;23389;52.484;13.572;2023-04-30T08:35:21;7.77;;;3.23;;
37545;SDS011;23389;52.484;13.572;2023-04-30T08:37:46;10.68;;;3.45;;
37545;SDS011;23389;52.484;13.572;2023-04-30T08:40:11;11.43;;;3.47;;
37545;SDS011;23389;52.484;13.572;2023-04-30T08:42:40;12.50;;;3.25;;
37545;SDS011;23389;52.484;13.572;2023-04-30T08:45:07;10.52;;;3.40;;
37545;SDS011;23389;52.484;13.572;2023-04-30T08:47:32;7.22;;;3.00;;
37545;SDS011;23389;52.484;13.572;2023-04-30T08:49:57;7.25;;;2.63;;
37545;SDS011;23389;52.484;13.572;2023-04-30T08:52:22;9.95;;;3.13;;
37545;SDS011;23389;52.484;13.572;2023-04-30T08:54:49;9.05;;;2.95;;
37545;SDS011;23389;52.484;13.572;2023-04-30T08:57:14;7.40;;;3.03;;
37545;SDS011;23389;52.484;13.572;2023-04-30T08:59:40;9.63;;;3.20;;
37545;SDS011;23389;52.484;13.572;2023-04-30T09:02:05;8.18;;;2.72;;
37545;SDS011;23389;52.484;13.572;2023-04-30T09:04:31;7.55;;;2.78;;
37545;SDS011;23389;52.484;13.572;2023-04-30T09:06:57;8.38;;;3.15;;
37545;SDS011;23389;52.484;13.572;2023-04-30T09:09:28;7.82;;;2.83;;
37545;SDS011;23389;52.484;13.572;2023-04-30T09:12:10;11.48;;;2.97;;
37545;SDS011;23389;52.484;13.572;2023-04-30T09:14:37;8.65;;;3.03;;
37545;SDS011;23389;52.484;13.572;2023-04-30T09:17:04;9.50;;;2.85;;
37545;SDS011;23389;52.484;13.572;2023-04-30T09:19:29;8.27;;;2.58;;
37545;SDS011;23389;52.484;13.572;2023-04-30T09:21:55;7.18;;;2.50;;
37545;SDS011;23389;52.484;13.572;2023-04-30T09:24:20;7.03;;;2.20;;
37545;SDS011;23389;52.484;13.572;2023-04-30T09:26:46;5.32;;;1.90;;
37545;SDS011;23389;52.484;13.572;2023-04-30T09:29:11;7.15;;;2.35;;
37545;SDS011;23389;52.484;13.572;2023-04-30T09:31:36;8.38;;;1.85;;
37545;SDS011;23389;52.484;13.572;2023-04-30T09:34:02;5.28;;;1.70;;
37545;SDS011;23389;52.484;13.572;2023-04-30T09:36:27;6.75;;;1.75;;
37545;SDS011;23389;52.484;13.572;2023-04-30T09:38:53;6.78;;;1.98;;
37545;SDS011;23389;52.484;13.572;2023-04-30T09:41:22;7.18;;;1.90;;
37545;SDS011;23389;52.484;13.572;2023-04-30T09:46:13;4.78;;;1.83;;
37545;SDS011;23389;52.484;13.572;2023-04-30T09:48:40;7.40;;;2.20;;
37545;SDS011;23389;52.484;13.572;2023-04-30T09:51:05;7.30;;;1.90;;
37545;SDS011;23389;52.484;13.572;2023-04-30T09:53:31;7.47;;;2.20;;
37545;SDS011;23389;52.484;13.572;2023-04-30T09:55:57;8.23;;;2.42;;
37545;SDS011;23389;52.484;13.572;2023-04-30T09:58:23;6.78;;;2.10;;
37545;SDS011;23389;52.484;13.572;2023-04-30T10:00:51;6.60;;;2.30;;
37545;SDS011;23389;52.484;13.572;2023-04-30T10:03:17;9.50;;;2.58;;
37545;SDS011;23389;52.484;13.572;2023-04-30T10:05:44;9.32;;;2.50;;
37545;SDS011;23389;52.484;13.572;2023-04-30T10:10:42;6.20;;;2.28;;
37545;SDS011;23389;52.484;13.572;2023-04-30T10:13:09;6.18;;;2.08;;
37545;SDS011;23389;52.484;13.572;2023-04-30T10:15:37;5.40;;;1.90;;
37545;SDS011;23389;52.484;13.572;2023-04-30T10:18:04;8.10;;;2.05;;
37545;SDS011;23389;52.484;13.572;2023-04-30T10:20:30;7.03;;;2.38;;
37545;SDS011;23389;52.484;13.572;2023-04-30T10:22:57;7.20;;;2.08;;
37545;SDS011;23389;52.484;13.572;2023-04-30T10:25:23;6.57;;;2.13;;
37545;SDS011;23389;52.484;13.572;2023-04-30T10:27:50;6.13;;;2.35;;
37545;SDS011;23389;52.484;13.572;2023-04-30T10:30:15;6.93;;;2.10;;
37545;SDS011;23389;52.484;13.572;2023-04-30T10:32:47;5.63;;;2.30;;
37545;SDS011;23389;52.484;13.572;2023-04-30T10:35:16;5.47;;;2.15;;
37545;SDS011;23389;52.484;13.572;2023-04-30T10:37:45;5.72;;;2.35;;
37545;SDS011;23389;52.484;13.572;2023-04-30T10:40:11;6.15;;;2.42;;
37545;SDS011;23389;52.484;13.572;2023-04-30T10:42:40;4.97;;;2.22;;
37545;SDS011;23389;52.484;13.572;2023-04-30T10:45:09;8.00;;;1.88;;
37545;SDS011;23389;52.484;13.572;2023-04-30T10:47:34;6.13;;;2.25;;
37545;SDS011;23389;52.484;13.572;2023-04-30T10:50:03;6.13;;;1.73;;
37545;SDS011;23389;52.484;13.572;2023-04-30T10:52:28;7.68;;;2.30;;
37545;SDS011;23389;52.484;13.572;2023-04-30T10:54:53;7.50;;;2.40;;
37545;SDS011;23389;52.484;13.572;2023-04-30T10:57:19;6.03;;;1.95;;
37545;SDS011;23389;52.484;13.572;2023-04-30T10:59:50;5.78;;;1.92;;
37545;SDS011;23389;52.484;13.572;2023-04-30T11:02:16;7.55;;;2.33;;
37545;SDS011;23389;52.484;13.572;2023-04-30T11:07:25;8.57;;;2.58;;
37545;SDS011;23389;52.484;13.572;2023-04-30T11:09:52;8.50;;;2.45;;
37545;SDS011;23389;52.484;13.572;2023-04-30T11:12:20;6.63;;;2.40;;
37545;SDS011;23389;52.484;13.572;2023-04-30T11:14:52;5.57;;;2.22;;
37545;SDS011;23389;52.484;13.572;2023-04-30T11:17:21;8.77;;;2.72;;
37545;SDS011;23389;52.484;13.572;2023-04-30T11:27:22;7.10;;;2.70;;
37545;SDS011;23389;52.484;13.572;2023-04-30T11:29:47;5.78;;;2.17;;
37545;SDS011;23389;52.484;13.572;2023-04-30T11:32:13;5.85;;;2.30;;
37545;SDS011;23389;52.484;13.572;2023-04-30T11:34:38;7.03;;;2.38;;
37545;SDS011;23389;52.484;13.572;2023-04-30T11:37:04;9.02;;;2.40;;
37545;SDS011;23389;52.484;13.572;2023-04-30T11:39:30;6.35;;;2.00;;
37545;SDS011;23389;52.484;13.572;2023-04-30T11:41:56;5.07;;;1.95;;
37545;SDS011;23389;52.484;13.572;2023-04-30T11:44:22;5.50;;;2.10;;
37545;SDS011;23389;52.484;13.572;2023-04-30T11:46:49;6.45;;;2.03;;
37545;SDS011;23389;52.484;13.572;2023-04-30T11:49:14;6.13;;;2.40;;
37545;SDS011;23389;52.484;13.572;2023-04-30T11:51:40;5.53;;;2.10;;
37545;SDS011;23389;52.484;13.572;2023-04-30T11:54:06;5.78;;;2.10;;
37545;SDS011;23389;52.484;13.572;2023-04-30T11:56:32;6.88;;;2.30;;
37545;SDS011;23389;52.484;13.572;2023-04-30T11:59:01;8.20;;;2.33;;
37545;SDS011;23389;52.484;13.572;2023-04-30T12:01:33;9.60;;;2.22;;
37545;SDS011;23389;52.484;13.572;2023-04-30T12:03:58;7.50;;;1.98;;
37545;SDS011;23389;52.484;13.572;2023-04-30T12:06:24;7.97;;;2.13;;
37545;SDS011;23389;52.484;13.572;2023-04-30T12:08:53;6.38;;;2.60;;
37545;SDS011;23389;52.484;13.572;2023-04-30T12:11:25;5.25;;;1.85;;
37545;SDS011;23389;52.484;13.572;2023-04-30T12:13:51;6.72;;;2.35;;
37545;SDS011;23389;52.484;13.572;2023-04-30T12:16:16;5.07;;;2.30;;
37545;SDS011;23389;52.484;13.572;2023-04-30T12:18:41;8.75;;;2.88;;
37545;SDS011;23389;52.484;13.572;2023-04-30T12:21:07;6.70;;;2.13;;
37545;SDS011;23389;52.484;13.572;2023-04-30T12:23:33;7.93;;;2.25;;
37545;SDS011;23389;52.484;13.572;2023-04-30T12:25:58;5.93;;;2.23;;
37545;SDS011;23389;52.484;13.572;2023-04-30T12:28:23;5.30;;;1.80;;
37545;SDS011;23389;52.484;13.572;2023-04-30T12:30:48;5.90;;;2.45;;
37545;SDS011;23389;52.484;13.572;2023-04-30T12:33:15;6.97;;;1.92;;
37545;SDS011;23389;52.484;13.572;2023-04-30T12:35:41;8.60;;;2.33;;
37545;SDS011;23389;52.484;13.572;2023-04-30T12:38:07;7.85;;;2.50;;
37545;SDS011;23389;52.484;13.572;2023-04-30T12:40:33;6.93;;;2.20;;
37545;SDS011;23389;52.484;13.572;2023-04-30T12:43:06;8.45;;;2.38;;
37545;SDS011;23389;52.484;13.572;2023-04-30T12:48:12;6.10;;;2.30;;
37545;SDS011;23389;52.484;13.572;2023-04-30T12:50:37;5.45;;;2.13;;
37545;SDS011;23389;52.484;13.572;2023-04-30T12:53:05;6.25;;;2.40;;
37545;SDS011;23389;52.484;13.572;2023-04-30T12:55:33;9.40;;;2.60;;
37545;SDS011;23389;52.484;13.572;2023-04-30T12:58:01;6.63;;;2.28;;
37545;SDS011;23389;52.484;13.572;2023-04-30T13:00:27;8.02;;;2.75;;
37545;SDS011;23389;52.484;13.572;2023-04-30T13:02:52;8.90;;;2.35;;
37545;SDS011;23389;52.484;13.572;2023-04-30T13:05:17;7.47;;;2.25;;
37545;SDS011;23389;52.484;13.572;2023-04-30T13:07:42;5.38;;;2.03;;
37545;SDS011;23389;52.484;13.572;2023-04-30T13:10:08;7.25;;;2.25;;
37545;SDS011;23389;52.484;13.572;2023-04-30T13:12:33;5.95;;;2.20;;
37545;SDS011;23389;52.484;13.572;2023-04-30T13:14:58;6.93;;;2.15;;
37545;SDS011;23389;52.484;13.572;2023-04-30T13:17:24;6.90;;;2.22;;
37545;SDS011;23389;52.484;13.572;2023-04-30T13:19:50;5.45;;;2.17;;
37545;SDS011;23389;52.484;13.572;2023-04-30T13:22:15;5.67;;;2.03;;
37545;SDS011;23389;52.484;13.572;2023-04-30T13:24:40;5.60;;;2.00;;
37545;SDS011;23389;52.484;13.572;2023-04-30T13:27:06;6.63;;;1.90;;
37545;SDS011;23389;52.484;13.572;2023-04-30T13:29:31;5.80;;;1.60;;
37545;SDS011;23389;52.484;13.572;2023-04-30T13:31:56;6.75;;;2.20;;
37545;SDS011;23389;52.484;13.572;2023-04-30T13:34:22;8.00;;;2.60;;
37545;SDS011;23389;52.484;13.572;2023-04-30T13:36:47;6.60;;;2.20;;
37545;SDS011;23389;52.484;13.572;2023-04-30T13:39:12;5.90;;;2.00;;
37545;SDS011;23389;52.484;13.572;2023-04-30T13:41:37;5.87;;;2.10;;
37545;SDS011;23389;52.484;13.572;2023-04-30T13:44:02;5.63;;;2.53;;
37545;SDS011;23389;52.484;13.572;2023-04-30T13:46:28;6.97;;;2.30;;
37545;SDS011;23389;52.484;13.572;2023-04-30T13:48:54;8.13;;;2.15;;
37545;SDS011;23389;52.484;13.572;2023-04-30T13:51:19;6.40;;;2.10;;
37545;SDS011;23389;52.484;13.572;2023-04-30T13:53:45;7.67;;;2.03;;
37545;SDS011;23389;52.484;13.572;2023-04-30T13:56:10;7.10;;;1.92;;
37545;SDS011;23389;52.484;13.572;2023-04-30T13:58:35;5.25;;;2.25;;
37545;SDS011;23389;52.484;13.572;2023-04-30T14:01:00;6.60;;;2.08;;
37545;SDS011;23389;52.484;13.572;2023-04-30T14:03:26;6.35;;;2.20;;
37545;SDS011;23389;52.484;13.572;2023-04-30T14:05:51;4.85;;;2.30;;
37545;SDS011;23389;52.484;13.572;2023-04-30T14:08:18;8.45;;;2.53;;
37545;SDS011;23389;52.484;13.572;2023-04-30T14:10:43;5.55;;;2.28;;
37545;SDS011;23389;52.484;13.572;2023-04-30T14:13:08;5.67;;;1.83;;
37545;SDS011;23389;52.484;13.572;2023-04-30T14:15:33;5.15;;;1.98;;
37545;SDS011;23389;52.484;13.572;2023-04-30T14:17:58;6.43;;;2.08;;
37545;SDS011;23389;52.484;13.572;2023-04-30T14:20:27;6.93;;;2.35;;
37545;SDS011;23389;52.484;13.572;2023-04-30T14:22:52;6.38;;;2.00;;
37545;SDS011;23389;52.484;13.572;2023-04-30T14:25:17;6.00;;;2.00;;
37545;SDS011;23389;52.484;13.572;2023-04-30T14:27:42;7.03;;;2.13;;
37545;SDS011;23389;52.484;13.572;2023-04-30T14:30:07;8.03;;;1.97;;
37545;SDS011;23389;52.484;13.572;2023-04-30T14:32:34;5.60;;;1.70;;
37545;SDS011;23389;52.484;13.572;2023-04-30T14:34:59;5.50;;;1.90;;
37545;SDS011;23389;52.484;13.572;2023-04-30T14:37:24;5.13;;;1.77;;
37545;SDS011;23389;52.484;13.572;2023-04-30T14:39:50;5.55;;;1.92;;
37545;SDS011;23389;52.484;13.572;2023-04-30T14:42:15;4.67;;;1.80;;
37545;SDS011;23389;52.484;13.572;2023-04-30T14:44:40;4.53;;;1.70;;
37545;SDS011;23389;52.484;13.572;2023-04-30T14:47:05;5.28;;;1.90;;
37545;SDS011;23389;52.484;13.572;2023-04-30T14:49:30;4.80;;;1.85;;
37545;SDS011;23389;52.484;13.572;2023-04-30T14:51:55;5.20;;;1.80;;
37545;SDS011;23389;52.484;13.572;2023-04-30T14:54:20;5.43;;;1.75;;